Time;durP1;ratioP1;P1;durP2;ratioP2;P2;SDS_P1;SDS_P2;PMS_P1;PMS_P2;Temp;Humidity;BMP_temperature;BMP_pressure;BME280_temperature;BME280_humidity;BME280_pressure;Samples;Min_cycle;Max_cycle;Signal;HPM_P1;HPM_P2
2024/04/08 00:01:19;;;;;;;17.00;10.30;;;;;;;15.97;54.47;98964.62;104169;1298;545023;-85
2024/04/08 00:05:10;;;;;;;15.10;9.30;;;;;;;16.01;54.71;98960.52;104497;1293;545095;-85
2024/04/08 00:08:48;;;;;;;11.90;7.50;;;;;;;16.05;54.71;98960.97;105014;1295;545501;-84
2024/04/08 00:12:31;;;;;;;9.50;6.60;;;;;;;16.07;54.93;98952.84;104965;1296;545512;-82
2024/04/08 00:16:07;;;;;;;10.50;6.60;;;;;;;16.07;54.91;98952.06;104076;1295;544905;-84
2024/04/08 00:19:39;;;;;;;9.60;6.20;;;;;;;16.09;55.09;98951.45;104505;1298;545127;-85
2024/04/08 00:23:21;;;;;;;10.50;6.30;;;;;;;16.08;55.22;98942.11;103876;1295;544686;-81
2024/04/08 00:26:58;;;;;;;9.10;6.70;;;;;;;16.07;55.14;98944.81;103858;1300;546669;-81
2024/04/08 00:30:39;;;;;;;10.80;7.00;;;;;;;16.06;55.35;98941.03;104138;1295;545050;-83
2024/04/08 00:34:13;;;;;;;12.00;6.80;;;;;;;16.03;55.69;98933.08;104181;1296;545578;-83
2024/04/08 00:37:52;;;;;;;10.20;6.50;;;;;;;16.01;55.74;98924.20;104082;1294;544972;-82
2024/04/08 00:41:29;;;;;;;10.90;5.80;;;;;;;16.00;55.82;98917.88;103903;1298;545108;-82
2024/04/08 00:45:05;;;;;;;10.00;6.20;;;;;;;15.99;55.96;98915.77;104394;1289;545432;-82
2024/04/08 00:48:48;;;;;;;8.20;5.70;;;;;;;15.99;56.22;98908.02;104292;1301;544920;-82
2024/04/08 00:52:22;;;;;;;8.40;6.10;;;;;;;16.00;56.19;98904.78;104487;1295;545465;-84
2024/04/08 00:56:04;;;;;;;9.00;6.10;;;;;;;16.00;56.36;98899.23;104394;1295;545050;-84
2024/04/08 00:59:42;;;;;;;9.10;5.80;;;;;;;16.02;56.37;98900.50;104524;1295;544792;-83
2024/04/08 01:03:21;;;;;;;7.90;5.50;;;;;;;16.04;56.45;98899.08;104545;1296;545899;-84
2024/04/08 01:06:57;;;;;;;13.60;6.10;;;;;;;16.06;56.76;98888.71;104207;1292;544959;-81
2024/04/08 01:10:35;;;;;;;10.90;5.90;;;;;;;16.07;56.75;98889.30;104047;1294;544681;-82
2024/04/08 01:14:13;;;;;;;8.80;6.20;;;;;;;16.09;56.74;98888.09;104104;1294;545763;-83
2024/04/08 01:18:15;;;;;;;8.90;5.80;;;;;;;16.10;57.10;98884.31;104784;1288;546107;-82
2024/04/08 01:21:28;;;;;;;7.00;5.10;;;;;;;16.10;57.34;98879.08;104100;1291;544898;-84
2024/04/08 01:25:04;;;;;;;9.80;5.70;;;;;;;16.11;57.27;98879.42;104551;1289;544811;-84
2024/04/08 01:28:50;;;;;;;9.30;5.60;;;;;;;16.11;57.42;98872.11;104276;1292;545193;-84
2024/04/08 01:32:24;;;;;;;8.50;5.20;;;;;;;16.12;57.54;98877.36;104295;1293;546181;-88
2024/04/08 01:36:06;;;;;;;6.90;5.40;;;;;;;16.12;57.73;98866.52;103717;1299;545813;-81
2024/04/08 01:39:39;;;;;;;10.80;5.30;;;;;;;16.11;58.01;98869.42;103705;1295;544787;-80
2024/04/08 01:43:17;;;;;;;5.80;5.00;;;;;;;16.04;58.40;98874.27;104151;1287;544937;-77
2024/04/08 01:46:55;;;;;;;6.10;4.60;;;;;;;16.01;58.47;98861.42;103573;1292;545477;-76
2024/04/08 01:50:37;;;;;;;6.30;5.00;;;;;;;16.02;58.50;98852.98;104326;1294;545677;-85
2024/04/08 01:54:12;;;;;;;6.90;5.30;;;;;;;16.02;58.73;98843.17;104105;1290;545117;-83
2024/04/08 01:57:57;;;;;;;6.70;5.00;;;;;;;16.05;58.95;98833.73;104498;1294;545140;-85
2024/04/08 02:01:25;;;;;;;5.90;4.70;;;;;;;16.07;59.09;98833.96;104735;1292;545268;-85
2024/04/08 02:05:01;;;;;;;5.30;4.80;;;;;;;16.06;59.36;98837.20;104420;1296;546256;-88
2024/04/08 02:08:43;;;;;;;8.40;4.90;;;;;;;16.06;59.76;98837.95;104122;1295;545500;-85
2024/04/08 02:12:21;;;;;;;6.80;4.60;;;;;;;16.08;59.88;98842.70;106071;1293;544851;-86
2024/04/08 02:15:58;;;;;;;6.40;4.20;;;;;;;16.11;60.02;98843.35;104421;1299;544721;-84
2024/04/08 02:19:34;;;;;;;6.30;4.20;;;;;;;16.17;60.12;98835.46;104386;1294;544864;-86
2024/04/08 02:23:16;;;;;;;15.30;5.80;;;;;;;16.22;60.20;98831.71;104392;1295;545476;-86
2024/04/08 02:26:54;;;;;;;6.00;3.90;;;;;;;16.25;60.46;98823.47;104416;1293;544874;-86
2024/04/08 02:30:35;;;;;;;6.20;3.80;;;;;;;16.28;60.42;98819.98;104752;1295;545368;-86
2024/04/08 02:34:17;;;;;;;5.80;4.30;;;;;;;16.32;60.56;98817.00;104353;1298;545946;-87
2024/04/08 02:37:54;;;;;;;4.50;4.10;;;;;;;16.34;60.74;98811.70;104310;1296;545657;-86
2024/04/08 02:41:32;;;;;;;6.40;4.30;;;;;;;16.36;60.69;98816.90;103938;1291;544728;-86
2024/04/08 02:45:10;;;;;;;6.20;3.70;;;;;;;16.38;60.85;98820.14;104686;1290;545211;-86
2024/04/08 02:48:48;;;;;;;6.10;4.30;;;;;;;16.43;61.33;98812.08;104847;1292;545120;-87
2024/04/08 02:52:23;;;;;;;6.30;4.80;;;;;;;16.48;61.09;98813.09;104514;1295;544978;-87
2024/04/08 02:56:06;;;;;;;14.10;4.90;;;;;;;16.50;61.13;98809.00;104566;1290;545480;-86
2024/04/08 02:59:47;;;;;;;15.10;5.00;;;;;;;16.51;61.44;98805.68;104212;1294;545669;-85
2024/04/08 03:03:21;;;;;;;6.90;3.90;;;;;;;16.53;61.48;98810.71;104119;1292;545732;-85
2024/04/08 03:07:06;;;;;;;5.80;4.10;;;;;;;16.52;61.44;98797.95;103742;1292;545074;-81
2024/04/08 03:10:58;;;;;;;5.40;4.00;;;;;;;16.53;61.35;98797.04;104038;1292;545729;-81
2024/04/08 03:14:21;;;;;;;5.40;4.50;;;;;;;16.52;61.63;98796.02;104347;1291;545507;-80
2024/04/08 03:17:59;;;;;;;4.60;3.90;;;;;;;16.52;61.66;98798.67;103934;1292;545135;-82
2024/04/08 03:21:41;;;;;;;13.00;4.70;;;;;;;16.54;61.71;98795.92;103884;1295;545635;-81
2024/04/08 03:25:18;;;;;;;6.40;4.00;;;;;;;16.54;61.90;98790.35;103797;1299;546025;-81
2024/04/08 03:28:52;;;;;;;5.60;3.40;;;;;;;16.56;61.94;98784.55;103462;1298;544963;-78
2024/04/08 03:32:30;;;;;;;5.00;3.40;;;;;;;16.57;61.83;98784.63;103577;1292;545117;-77
2024/04/08 03:36:09;;;;;;;3.90;2.80;;;;;;;16.61;62.00;98790.29;103530;1295;544911;-81
2024/04/08 03:39:49;;;;;;;5.00;3.10;;;;;;;16.65;62.08;98786.98;103787;1293;545441;-82
2024/04/08 03:43:27;;;;;;;8.70;6.30;;;;;;;16.71;62.14;98787.66;103527;1295;547911;-78
2024/04/08 03:47:01;;;;;;;6.30;4.60;;;;;;;16.75;62.24;98787.73;103292;1295;545509;-79
2024/04/08 03:50:39;;;;;;;10.50;4.10;;;;;;;16.74;62.04;98785.64;103487;1294;544980;-78
2024/04/08 03:54:16;;;;;;;6.90;4.60;;;;;;;16.72;62.21;98770.91;103701;1294;545008;-78
2024/04/08 03:57:54;;;;;;;6.60;4.40;;;;;;;16.68;62.31;98774.42;103486;1293;545070;-78
2024/04/08 04:01:30;;;;;;;24.60;5.80;;;;;;;16.64;62.55;98770.01;103620;1292;545137;-78
2024/04/08 04:15:38;;;;;;;6.70;2.70;;;;;;;16.88;62.42;98768.98;105629;1288;554390;-86
2024/04/08 04:18:40;;;;;;;11.40;3.40;;;;;;;17.16;62.13;98763.98;104956;1292;545180;-87
2024/04/08 04:22:21;;;;;;;14.00;3.40;;;;;;;17.34;62.10;98766.96;104679;1296;550655;-85
2024/04/08 04:25:50;;;;;;;7.80;2.70;;;;;;;17.39;61.76;98766.05;105154;1292;545704;-86
2024/04/08 04:29:19;;;;;;;5.70;2.20;;;;;;;17.41;61.84;98767.81;105354;1298;545920;-88
2024/04/08 04:33:03;;;;;;;13.20;4.00;;;;;;;17.50;61.85;98764.56;105774;1298;544989;-88
2024/04/08 05:01:00;;;;;;;5.40;3.30;;;;;;;18.26;61.53;98750.65;103990;1291;553995;-77
2024/04/08 05:03:48;;;;;;;6.20;3.60;;;;;;;18.32;61.41;98753.54;103662;1296;545176;-79
2024/04/08 05:07:28;;;;;;;18.30;6.80;;;;;;;18.25;61.48;98744.27;103602;1296;545459;-78
2024/04/08 05:11:09;;;;;;;19.40;9.80;;;;;;;18.19;61.70;98743.63;103788;1291;544963;-77
2024/04/08 05:14:51;;;;;;;17.90;5.40;;;;;;;18.16;61.43;98740.35;103481;1297;549245;-78
2024/04/08 05:18:25;;;;;;;6.30;4.20;;;;;;;18.15;61.46;98739.48;103395;1299;545906;-78
2024/04/08 05:32:29;;;;;;;13.50;10.70;;;;;;;18.50;61.41;98736.48;104687;1288;554048;-78
2024/04/08 05:35:19;;;;;;;10.30;5.80;;;;;;;18.77;61.47;98739.89;103601;1298;544964;-78
2024/04/08 05:38:57;;;;;;;17.30;10.40;;;;;;;18.89;62.36;98734.13;103459;1292;544965;-77
2024/04/08 05:42:34;;;;;;;8.90;3.90;;;;;;;19.07;61.82;98730.81;104521;1289;544995;-77
2024/04/08 05:46:13;;;;;;;6.30;3.40;;;;;;;19.19;61.57;98728.08;104532;1292;545011;-77
2024/04/08 05:49:50;;;;;;;20.30;4.20;;;;;;;19.35;61.24;98725.75;104492;1292;545030;-82
2024/04/08 05:53:28;;;;;;;26.40;4.90;;;;;;;19.52;61.00;98733.88;104658;1293;545003;-83
2024/04/08 05:57:06;;;;;;;7.50;2.90;;;;;;;19.71;60.76;98734.66;104420;1296;545575;-81
2024/04/08 06:00:48;;;;;;;5.10;3.00;;;;;;;19.94;60.66;98736.97;104229;1292;545066;-82
2024/04/08 06:04:25;;;;;;;5.40;2.40;;;;;;;20.25;60.69;98740.80;104625;1295;545302;-82
2024/04/08 06:08:07;;;;;;;12.70;3.10;;;;;;;20.57;60.49;98739.17;104760;1292;545711;-82
2024/04/08 06:11:44;;;;;;;8.10;3.00;;;;;;;20.80;60.34;98731.98;104699;1293;545050;-82
2024/04/08 06:15:20;;;;;;;10.40;3.40;;;;;;;20.96;59.76;98733.80;105578;1290;544764;-82
2024/04/08 06:19:01;;;;;;;11.90;2.70;;;;;;;21.11;59.41;98733.11;104774;1293;546064;-82
2024/04/08 06:22:39;;;;;;;4.00;2.70;;;;;;;21.30;59.60;98734.67;104786;1293;545569;-84
2024/04/08 06:26:18;;;;;;;4.20;2.40;;;;;;;21.52;59.52;98733.82;105482;1289;545039;-85
2024/04/08 07:07:57;;;;;;;8.80;2.80;;;;;;;24.18;56.06;98721.25;105012;1289;553690;-87
2024/04/08 09:01:11;;;;;;;5.80;1.30;;;;;;;28.02;44.95;98694.33;106212;1289;544727;-86
2024/04/08 09:56:47;;;;;;;9.80;1.60;;;;;;;27.77;41.64;98680.95;103939;1289;554854;-77
2024/04/08 09:59:35;;;;;;;7.20;1.90;;;;;;;27.69;41.20;98692.77;103118;1296;545153;-77
2024/04/08 10:03:14;;;;;;;2.60;1.50;;;;;;;27.64;41.06;98690.59;103532;1296;544819;-77
2024/04/08 10:06:56;;;;;;;6.70;1.50;;;;;;;27.62;40.96;98682.70;103418;1298;545482;-78
2024/04/08 10:10:35;;;;;;;5.50;1.50;;;;;;;27.58;40.68;98686.50;103248;1295;545701;-78
2024/04/08 10:14:19;;;;;;;3.70;1.20;;;;;;;27.63;40.62;98694.34;103179;1295;545945;-76
2024/04/08 10:17:55;;;;;;;4.20;1.40;;;;;;;27.70;40.24;98695.31;103248;1293;545008;-76
2024/04/08 10:21:29;;;;;;;3.70;1.30;;;;;;;27.73;40.05;98697.07;104284;1316;544967;-89
2024/04/08 10:25:38;;;;;;;8.30;1.50;;;;;;;27.80;39.80;98697.91;105532;1295;545103;-86
2024/04/08 10:28:47;;;;;;;14.20;1.50;;;;;;;27.83;39.58;98687.70;106516;1286;545580;-86
2024/04/08 10:32:39;;;;;;;2.40;1.20;;;;;;;27.83;39.47;98698.76;105965;1300;544865;-88
2024/04/08 10:36:12;;;;;;;7.30;1.20;;;;;;;27.93;39.59;98691.17;105604;1295;545093;-89
2024/04/08 10:39:45;;;;;;;6.30;1.40;;;;;;;28.00;39.43;98706.13;105297;1292;544978;-86
2024/04/08 10:43:22;;;;;;;5.10;1.50;;;;;;;28.19;39.30;98714.83;105432;1292;545063;-88
2024/04/08 10:47:02;;;;;;;8.30;1.40;;;;;;;28.32;39.09;98710.91;105537;1294;545317;-87
2024/04/08 10:50:48;;;;;;;3.00;1.20;;;;;;;28.32;38.88;98700.90;105437;1292;545018;-88
2024/04/08 10:54:22;;;;;;;3.10;1.40;;;;;;;28.32;38.81;98708.95;105213;1295;545181;-88
2024/04/08 10:58:06;;;;;;;5.30;1.40;;;;;;;28.35;38.89;98721.15;104923;1295;545960;-88
2024/04/08 11:01:35;;;;;;;3.70;1.30;;;;;;;28.42;38.53;98712.64;105902;1289;544815;-89
2024/04/08 11:05:18;;;;;;;6.80;1.20;;;;;;;28.46;38.59;98719.29;105172;1296;545465;-88
2024/04/08 11:08:56;;;;;;;4.30;1.30;;;;;;;28.51;38.36;98715.55;105351;1293;545726;-88
2024/04/08 11:12:35;;;;;;;4.30;1.20;;;;;;;28.49;38.24;98712.20;105601;1288;545116;-89
2024/04/08 11:16:16;;;;;;;4.20;1.30;;;;;;;28.55;38.25;98705.46;104991;1293;546527;-88
2024/04/08 11:30:16;;;;;;;2.10;1.50;;;;;;;28.82;38.04;98691.54;104199;1299;554147;-78
2024/04/08 11:33:05;;;;;;;7.10;1.70;;;;;;;28.90;38.17;98682.16;103294;1293;545092;-78
2024/04/08 11:36:43;;;;;;;8.60;3.20;;;;;;;28.82;37.70;98680.33;103855;1292;545569;-77
2024/04/08 11:40:20;;;;;;;22.10;3.40;;;;;;;28.67;37.62;98676.81;103281;1296;545011;-78
2024/04/08 11:43:58;;;;;;;7.50;2.60;;;;;;;28.64;37.74;98673.80;103110;1292;545020;-78
2024/04/08 11:47:36;;;;;;;9.20;3.30;;;;;;;28.63;37.56;98670.96;103184;1302;545082;-78
2024/04/08 11:51:14;;;;;;;6.30;2.00;;;;;;;28.56;37.49;98662.00;103484;1294;545062;-77
2024/04/08 11:54:51;;;;;;;10.70;1.70;;;;;;;28.53;37.50;98658.33;103178;1296;545016;-77
2024/04/08 11:58:29;;;;;;;4.30;2.30;;;;;;;28.50;37.28;98654.91;103540;1291;545009;-77
2024/04/08 12:02:08;;;;;;;4.00;1.50;;;;;;;28.49;37.49;98650.86;103407;1297;545013;-76
2024/04/08 12:05:45;;;;;;;4.10;1.40;;;;;;;28.51;37.21;98646.19;103317;1295;545550;-78
2024/04/08 12:09:45;;;;;;;4.30;1.90;;;;;;;28.54;37.31;98637.55;105411;1295;549503;-88
2024/04/08 12:13:16;;;;;;;3.40;1.30;;;;;;;28.60;37.39;98637.19;105990;1287;545854;-87
2024/04/08 12:16:38;;;;;;;3.40;1.50;;;;;;;28.61;37.21;98630.89;105189;1295;545108;-86
2024/04/08 12:20:16;;;;;;;4.80;1.80;;;;;;;28.63;37.24;98632.86;104940;1298;546608;-89
2024/04/08 12:23:54;;;;;;;6.30;1.40;;;;;;;28.70;37.10;98629.57;106172;1286;545527;-87
2024/04/08 12:37:58;;;;;;;4.50;1.60;;;;;;;29.19;37.00;98636.51;105975;1288;553983;-88
2024/04/08 12:40:46;;;;;;;4.50;1.30;;;;;;;29.55;36.99;98643.09;105336;1292;545101;-88
2024/04/08 12:44:28;;;;;;;4.40;1.40;;;;;;;29.57;36.86;98649.73;105020;1294;545030;-88
2024/04/08 12:48:06;;;;;;;7.70;1.50;;;;;;;29.53;37.03;98650.24;105530;1291;545437;-88
2024/04/08 12:51:41;;;;;;;3.20;1.60;;;;;;;29.62;37.02;98652.33;104945;1294;545099;-87
2024/04/08 12:55:28;;;;;;;4.30;1.70;;;;;;;29.69;36.83;98645.27;105740;1291;545054;-87
2024/04/08 12:59:08;;;;;;;4.00;1.40;;;;;;;29.67;36.86;98642.69;105879;1292;545041;-87
2024/04/08 13:02:57;;;;;;;5.50;1.40;;;;;;;29.62;36.53;98638.14;105483;1297;548945;-86
2024/04/08 13:06:28;;;;;;;6.50;1.20;;;;;;;29.38;36.69;98636.55;105356;1295;545173;-89
2024/04/08 13:10:01;;;;;;;6.60;1.70;;;;;;;29.27;36.61;98637.64;105872;1292;544925;-86
2024/04/08 13:13:42;;;;;;;2.50;1.40;;;;;;;29.23;36.70;98634.59;105646;1295;545033;-88
2024/04/08 13:17:21;;;;;;;4.70;1.30;;;;;;;29.28;36.54;98635.46;105206;1293;544829;-88
2024/04/08 13:20:52;;;;;;;3.00;1.40;;;;;;;29.16;36.49;98625.13;105237;1293;544912;-88
2024/04/08 13:24:30;;;;;;;3.60;1.30;;;;;;;29.12;36.37;98621.66;105614;1295;544899;-87
2024/04/08 13:28:07;;;;;;;2.40;1.20;;;;;;;29.17;36.46;98620.37;106187;1290;545150;-87
2024/04/08 13:31:51;;;;;;;11.00;1.60;;;;;;;29.16;36.30;98617.32;105347;1295;545362;-87
2024/04/08 13:35:33;;;;;;;4.00;1.40;;;;;;;29.20;36.40;98611.34;106133;1295;544903;-88
2024/04/08 13:39:03;;;;;;;3.30;1.50;;;;;;;29.25;36.39;98610.37;105214;1292;544949;-87
2024/04/08 13:42:38;;;;;;;3.90;1.50;;;;;;;29.30;36.40;98600.38;105809;1288;544779;-88
2024/04/08 13:46:30;;;;;;;6.60;1.80;;;;;;;29.35;36.40;98594.46;105026;1295;550079;-88
2024/04/08 13:50:06;;;;;;;2.90;1.30;;;;;;;29.35;36.27;98591.94;105204;1292;546878;-87
2024/04/08 13:53:30;;;;;;;2.90;1.50;;;;;;;29.34;36.21;98590.33;105386;1288;544991;-88
2024/04/08 13:57:12;;;;;;;2.60;1.50;;;;;;;29.36;36.22;98583.00;105331;1292;545143;-87
2024/04/08 14:11:16;;;;;;;4.40;1.30;;;;;;;29.62;35.97;98570.91;106112;1287;554996;-91
2024/04/08 14:14:04;;;;;;;6.60;1.80;;;;;;;29.79;35.66;98571.08;105289;1295;544821;-87
2024/04/08 14:17:49;;;;;;;1.90;1.10;;;;;;;29.79;35.86;98570.48;104915;1292;545731;-91
2024/04/08 14:21:30;;;;;;;2.60;1.70;;;;;;;29.72;35.73;98573.36;105545;1294;544969;-90
2024/04/08 14:25:03;;;;;;;5.20;1.80;;;;;;;29.52;35.60;98579.19;105865;1289;545516;-87
2024/04/08 14:28:46;;;;;;;4.40;1.40;;;;;;;29.30;35.54;98577.85;105387;1292;544875;-86
2024/04/08 14:32:17;;;;;;;7.10;1.60;;;;;;;29.31;35.48;98580.85;105068;1295;545050;-86
2024/04/08 14:35:55;;;;;;;4.40;1.60;;;;;;;29.34;35.78;98576.50;104996;1296;545015;-85
2024/04/08 14:39:32;;;;;;;2.10;1.30;;;;;;;29.41;35.74;98570.73;105301;1293;544932;-87
2024/04/08 14:43:08;;;;;;;5.30;1.50;;;;;;;29.39;35.62;98570.10;105343;1294;545046;-88
2024/04/08 14:57:28;;;;;;;2.10;1.20;;;;;;;29.55;35.50;98550.44;106568;1289;553839;-89
2024/04/08 15:00:20;;;;;;;2.70;1.10;;;;;;;29.44;35.33;98544.92;106549;1285;545038;-90
2024/04/08 15:04:07;;;;;;;3.10;1.40;;;;;;;29.17;35.29;98542.41;104706;1295;546211;-90
2024/04/08 15:07:35;;;;;;;2.90;1.30;;;;;;;28.91;35.46;98541.73;104720;1293;544872;-86
2024/04/08 15:35:35;;;;;;;8.50;1.60;;;;;;;28.08;36.46;98564.86;105306;1289;554773;-84
2024/04/08 15:38:25;;;;;;;2.40;1.50;;;;;;;28.06;36.40;98559.42;104618;1295;544937;-85
2024/04/08 15:42:20;;;;;;;4.20;1.60;;;;;;;27.89;36.72;98553.79;104228;1297;544959;-86
2024/04/08 15:46:03;;;;;;;4.30;1.60;;;;;;;27.74;36.67;98552.75;104680;1292;546384;-83
2024/04/08 15:49:22;;;;;;;2.90;1.50;;;;;;;27.58;36.83;98558.48;103880;1293;545606;-80
2024/04/08 15:52:58;;;;;;;6.40;2.20;;;;;;;27.41;36.83;98561.76;104302;1294;544899;-84
2024/04/08 15:56:40;;;;;;;5.00;1.80;;;;;;;27.24;36.73;98556.28;104413;1293;545059;-84
2024/04/08 16:00:17;;;;;;;7.10;2.10;;;;;;;27.04;36.86;98557.98;104692;1295;545514;-84
2024/04/08 16:03:57;;;;;;;6.30;2.10;;;;;;;26.85;36.98;98560.56;104629;1295;544962;-87
2024/04/08 16:07:36;;;;;;;4.80;2.30;;;;;;;26.66;37.15;98554.28;104178;1294;545172;-83
2024/04/08 16:11:21;;;;;;;3.40;2.00;;;;;;;26.55;37.34;98556.30;104387;1295;545006;-86
2024/04/08 16:14:57;;;;;;;5.10;2.40;;;;;;;26.46;37.47;98558.12;106032;1285;545102;-85
2024/04/08 16:18:26;;;;;;;2.80;1.90;;;;;;;26.33;37.49;98563.73;104886;1292;545003;-85
2024/04/08 16:22:04;;;;;;;6.00;2.20;;;;;;;26.15;37.69;98561.73;105049;1295;545077;-85
2024/04/08 16:25:40;;;;;;;5.20;2.20;;;;;;;26.03;37.87;98560.88;105293;1288;544832;-85
2024/04/08 16:29:39;;;;;;;7.40;2.30;;;;;;;25.90;38.18;98560.63;104706;1292;553037;-86
2024/04/08 16:33:09;;;;;;;4.80;2.20;;;;;;;25.74;38.28;98561.31;104868;1296;545582;-86
2024/04/08 16:36:38;;;;;;;6.20;2.00;;;;;;;25.63;38.35;98558.39;105200;1295;545174;-85
2024/04/08 16:40:15;;;;;;;5.10;2.00;;;;;;;25.51;38.67;98557.20;104687;1295;545052;-87
2024/04/08 16:43:52;;;;;;;6.40;2.00;;;;;;;25.38;38.72;98565.02;104677;1295;545016;-87
2024/04/08 16:47:31;;;;;;;4.80;1.80;;;;;;;25.21;38.81;98560.94;104891;1292;544859;-88
2024/04/08 16:51:08;;;;;;;5.00;1.80;;;;;;;25.08;39.18;98561.83;105082;1292;545023;-85
2024/04/08 16:54:44;;;;;;;6.80;2.00;;;;;;;24.95;39.26;98558.21;103060;1296;545531;-76
2024/04/08 16:58:25;;;;;;;2.70;1.90;;;;;;;24.82;39.39;98555.77;103180;1294;545712;-77
2024/04/08 17:02:03;;;;;;;5.20;2.10;;;;;;;24.68;39.69;98555.70;103486;1292;544983;-77
2024/04/08 17:05:41;;;;;;;2.60;1.60;;;;;;;24.54;39.92;98555.45;103237;1293;544911;-76
2024/04/08 17:09:24;;;;;;;7.90;2.00;;;;;;;24.39;40.06;98557.95;104213;1294;546103;-84
2024/04/08 17:12:57;;;;;;;5.50;2.00;;;;;;;24.24;40.19;98556.66;104717;1294;544981;-84
2024/04/08 17:16:34;;;;;;;6.10;2.20;;;;;;;24.13;40.80;98557.40;103868;1289;545001;-84
2024/04/08 17:20:13;;;;;;;2.90;1.70;;;;;;;24.04;40.97;98564.64;104228;1299;545021;-83
2024/04/08 17:23:51;;;;;;;7.00;1.90;;;;;;;23.93;41.02;98565.45;104631;1292;545576;-85
2024/04/08 17:27:29;;;;;;;9.50;2.50;;;;;;;23.82;41.78;98569.41;104658;1289;545029;-84
2024/04/08 17:31:06;;;;;;;6.30;2.40;;;;;;;23.71;41.65;98575.36;104057;1296;544986;-83
2024/04/08 17:34:42;;;;;;;3.00;1.80;;;;;;;23.58;41.68;98579.77;104031;1292;544977;-81
2024/04/08 17:38:22;;;;;;;4.90;2.10;;;;;;;23.44;41.90;98585.98;103771;1292;545701;-81
2024/04/08 17:41:58;;;;;;;4.80;2.20;;;;;;;23.31;42.27;98592.61;104334;1295;546137;-83
2024/04/08 17:45:35;;;;;;;3.70;2.10;;;;;;;23.17;41.91;98592.20;104875;1285;545616;-81
2024/04/08 17:49:13;;;;;;;4.40;1.80;;;;;;;22.99;42.10;98593.48;103911;1291;545440;-81
2024/04/08 17:52:51;;;;;;;3.90;1.90;;;;;;;22.84;42.55;98595.31;103885;1293;544976;-82
2024/04/08 17:56:29;;;;;;;3.00;1.80;;;;;;;22.73;42.67;98594.58;103485;1298;545009;-80
2024/04/08 18:00:07;;;;;;;9.30;2.40;;;;;;;22.60;42.86;98591.21;103370;1294;545024;-81
2024/04/08 18:03:48;;;;;;;10.60;2.50;;;;;;;22.47;42.98;98592.98;104278;1292;544973;-85
2024/04/08 18:07:23;;;;;;;9.60;2.50;;;;;;;22.34;43.36;98592.85;104285;1295;545009;-82
2024/04/08 18:11:02;;;;;;;3.40;1.90;;;;;;;22.23;43.49;98600.70;103200;1294;545681;-76
2024/04/08 18:14:37;;;;;;;5.60;2.50;;;;;;;22.13;43.73;98606.51;103124;1295;545574;-75
2024/04/08 18:18:15;;;;;;;4.40;2.70;;;;;;;22.01;43.99;98615.11;103221;1291;545501;-76
2024/04/08 18:21:53;;;;;;;4.60;2.90;;;;;;;21.90;43.75;98611.52;103086;1298;545129;-74
2024/04/08 18:25:30;;;;;;;5.40;2.70;;;;;;;21.79;44.11;98608.46;103115;1305;545022;-77
2024/04/08 18:29:07;;;;;;;6.90;3.80;;;;;;;21.67;44.07;98608.23;103195;1292;544938;-76
2024/04/08 18:32:50;;;;;;;7.20;3.90;;;;;;;21.55;44.19;98609.47;103025;1295;544981;-76
2024/04/08 18:36:25;;;;;;;7.00;4.10;;;;;;;21.44;44.31;98611.63;103083;1295;544886;-76
2024/04/08 18:40:06;;;;;;;9.80;4.00;;;;;;;21.35;45.09;98618.13;103744;1294;544923;-76
2024/04/08 18:43:46;;;;;;;9.00;3.50;;;;;;;21.26;45.83;98615.08;103773;1292;546137;-79
2024/04/08 18:47:27;;;;;;;8.80;4.60;;;;;;;21.18;45.43;98617.91;103363;1294;544945;-78
2024/04/08 18:51:06;;;;;;;7.30;4.20;;;;;;;21.04;45.37;98620.23;103241;1292;544918;-76
2024/04/08 18:54:43;;;;;;;7.00;4.10;;;;;;;20.91;45.42;98618.64;103358;1292;545661;-74
2024/04/08 18:58:18;;;;;;;4.10;3.40;;;;;;;20.80;45.50;98619.77;103218;1296;545034;-74
2024/04/08 19:01:58;;;;;;;5.70;4.30;;;;;;;20.69;45.79;98615.88;103183;1295;545000;-76
2024/04/08 19:05:41;;;;;;;12.20;7.50;;;;;;;20.59;45.79;98613.05;103424;1296;545129;-75
2024/04/08 19:09:23;;;;;;;9.40;4.70;;;;;;;20.49;46.06;98602.95;103283;1298;545039;-75
2024/04/08 19:13:02;;;;;;;7.10;3.80;;;;;;;20.41;46.29;98596.50;103186;1295;545905;-76
2024/04/08 19:16:38;;;;;;;7.70;4.40;;;;;;;20.33;46.61;98595.33;103148;1294;545500;-76
2024/04/08 19:20:17;;;;;;;9.80;4.90;;;;;;;20.24;46.76;98599.77;103374;1293;545626;-78
2024/04/08 19:23:54;;;;;;;9.60;4.90;;;;;;;20.17;46.90;98595.87;103565;1293;546731;-78
2024/04/08 19:27:32;;;;;;;11.50;4.60;;;;;;;20.10;47.04;98598.70;103192;1293;545231;-79
2024/04/08 19:31:10;;;;;;;11.40;6.80;;;;;;;20.04;47.17;98600.04;103338;1292;545263;-76
2024/04/08 19:35:07;;;;;;;15.10;7.50;;;;;;;20.02;47.26;98597.71;103520;1292;553511;-80
2024/04/08 19:38:25;;;;;;;13.00;6.70;;;;;;;19.96;47.57;98602.61;103464;1295;545094;-77
2024/04/08 19:42:03;;;;;;;11.40;5.90;;;;;;;19.93;47.73;98605.40;103177;1299;544946;-76
2024/04/08 19:45:41;;;;;;;10.50;5.60;;;;;;;19.90;47.76;98607.17;103174;1297;545132;-77
2024/04/08 19:49:16;;;;;;;9.80;4.70;;;;;;;19.86;47.86;98605.39;103185;1296;545094;-76
2024/04/08 19:52:58;;;;;;;9.10;4.30;;;;;;;19.83;48.05;98604.23;103112;1294;545434;-76
2024/04/08 19:56:37;;;;;;;8.40;4.90;;;;;;;19.80;48.25;98605.29;104391;1301;545503;-88
2024/04/08 20:00:18;;;;;;;8.80;4.60;;;;;;;19.80;48.44;98604.04;103749;1292;544946;-80
2024/04/08 20:03:51;;;;;;;14.90;5.10;;;;;;;19.76;48.38;98608.11;104000;1293;545093;-82
2024/04/08 20:07:29;;;;;;;7.90;4.40;;;;;;;19.75;48.51;98606.67;104062;1292;545291;-84
2024/04/08 20:11:11;;;;;;;10.90;5.30;;;;;;;19.73;48.51;98605.07;104335;1295;544990;-90
2024/04/08 20:14:42;;;;;;;9.20;5.10;;;;;;;19.70;48.67;98605.16;105103;1293;544943;-86
2024/04/08 20:18:26;;;;;;;8.80;4.60;;;;;;;19.67;48.68;98606.40;104708;1294;544974;-87
2024/04/08 20:22:01;;;;;;;9.60;4.40;;;;;;;19.63;48.80;98597.83;105384;1293;545011;-87
2024/04/08 20:25:50;;;;;;;7.80;4.20;;;;;;;19.61;48.92;98599.13;105230;1293;544991;-91
2024/04/08 20:29:29;;;;;;;6.30;3.60;;;;;;;19.59;48.88;98601.15;105529;1292;547810;-88
2024/04/08 20:32:55;;;;;;;8.40;4.40;;;;;;;19.57;49.10;98595.38;104414;1293;545384;-87
2024/04/08 20:36:33;;;;;;;6.90;5.00;;;;;;;19.54;49.23;98591.98;104509;1292;545382;-84
2024/04/08 20:40:10;;;;;;;10.00;4.80;;;;;;;19.49;49.37;98591.58;104855;1293;544899;-85
2024/04/08 20:43:48;;;;;;;8.20;4.30;;;;;;;19.45;49.46;98591.52;105045;1293;544699;-86
2024/04/08 20:47:26;;;;;;;5.50;3.20;;;;;;;19.40;49.47;98596.48;105153;1292;545074;-84
2024/04/08 20:51:08;;;;;;;5.60;2.80;;;;;;;19.33;49.70;98595.36;104605;1292;544964;-84
2024/04/08 20:54:42;;;;;;;6.10;2.90;;;;;;;19.28;49.86;98591.55;104708;1289;545026;-85
2024/04/08 20:58:20;;;;;;;4.00;2.60;;;;;;;19.23;49.83;98587.20;104339;1294;545953;-85
2024/04/08 21:02:01;;;;;;;5.00;2.60;;;;;;;19.20;49.99;98589.03;104387;1293;544849;-85
2024/04/08 21:05:37;;;;;;;5.10;3.10;;;;;;;19.15;50.23;98587.46;105052;1295;546017;-85
2024/04/08 21:09:13;;;;;;;9.00;4.40;;;;;;;19.10;50.38;98585.64;104923;1293;545639;-84
2024/04/08 21:12:51;;;;;;;6.90;3.80;;;;;;;19.03;50.43;98589.49;104410;1295;545005;-85
2024/04/08 21:16:28;;;;;;;6.50;3.90;;;;;;;18.98;50.65;98585.73;104262;1295;546099;-83
2024/04/08 21:20:06;;;;;;;7.50;4.20;;;;;;;18.94;50.73;98582.67;104458;1293;544981;-84
2024/04/08 21:23:53;;;;;;;7.50;3.30;;;;;;;18.90;50.83;98580.23;104276;1294;545054;-83
2024/04/08 21:27:19;;;;;;;6.20;3.00;;;;;;;18.85;50.88;98577.70;105622;1289;545484;-89
2024/04/08 21:31:01;;;;;;;5.80;2.80;;;;;;;18.80;51.13;98576.73;104637;1295;544994;-89
2024/04/08 21:34:44;;;;;;;7.10;3.10;;;;;;;18.74;51.27;98580.88;104472;1294;545370;-88
2024/04/08 21:38:14;;;;;;;6.10;3.30;;;;;;;18.71;51.42;98577.05;105187;1286;544861;-89
2024/04/08 21:41:54;;;;;;;8.90;3.90;;;;;;;18.70;51.48;98571.52;104144;1295;545112;-82
2024/04/08 21:45:36;;;;;;;8.50;4.20;;;;;;;18.68;51.67;98577.17;104121;1293;544831;-82